Terminal Aerodrome Forecast
Issued by NWS

Current Version | Previous Version | Text Only | Print | Product List | Glossary On
Versions: 1 2 3 4 5 6 7 8 9 10 11 12 13 14 15 16 17 18 19 20 21 22 23 24 25 26 27 28 29 30 31 32 33 34 35 36 37 38 39 40 41 42
000
FTUS42 KRAH 260539
TAFINT
TAF
KINT 260539Z 2606/2706 VRB03KT 2SM BR OVC003
      TEMPO 2607/2609 3SM SHRA BKN009
     FM261600 01008KT 6SM BR OVC014
     FM262100 02007KT P6SM OVC025
     FM270000 03005KT P6SM BKN050=

USA.gov is the U.S. government's official web portal to all federal, state and local government web resources and services.